sensor_id;sensor_type;location;lat;lon;timestamp;P1;durP1;ratioP1;P2;durP2;ratioP2
37299;SDS011;23184;51.902;12.836;2023-08-20T00:00:32;10.70;;;9.07;;
37299;SDS011;23184;51.902;12.836;2023-08-20T00:02:58;10.98;;;8.63;;
37299;SDS011;23184;51.902;12.836;2023-08-20T00:05:31;12.27;;;9.00;;
37299;SDS011;23184;51.902;12.836;2023-08-20T00:07:57;13.50;;;9.52;;
37299;SDS011;23184;51.902;12.836;2023-08-20T00:10:23;12.70;;;8.90;;
37299;SDS011;23184;51.902;12.836;2023-08-20T00:12:48;13.40;;;8.07;;
37299;SDS011;23184;51.902;12.836;2023-08-20T00:15:14;13.35;;;8.63;;
37299;SDS011;23184;51.902;12.836;2023-08-20T00:17:40;14.63;;;8.40;;
37299;SDS011;23184;51.902;12.836;2023-08-20T00:20:07;10.93;;;7.95;;
37299;SDS011;23184;51.902;12.836;2023-08-20T00:22:37;13.13;;;8.02;;
37299;SDS011;23184;51.902;12.836;2023-08-20T00:25:03;11.98;;;8.15;;
37299;SDS011;23184;51.902;12.836;2023-08-20T00:27:32;13.00;;;7.85;;
37299;SDS011;23184;51.902;12.836;2023-08-20T00:29:58;9.68;;;7.30;;
37299;SDS011;23184;51.902;12.836;2023-08-20T00:32:23;13.10;;;8.10;;
37299;SDS011;23184;51.902;12.836;2023-08-20T00:34:49;10.25;;;8.05;;
37299;SDS011;23184;51.902;12.836;2023-08-20T00:37:14;10.20;;;7.40;;
37299;SDS011;23184;51.902;12.836;2023-08-20T00:39:40;10.85;;;7.47;;
37299;SDS011;23184;51.902;12.836;2023-08-20T00:42:06;10.57;;;7.63;;
37299;SDS011;23184;51.902;12.836;2023-08-20T00:44:32;11.23;;;7.68;;
37299;SDS011;23184;51.902;12.836;2023-08-20T00:47:00;10.85;;;7.20;;
37299;SDS011;23184;51.902;12.836;2023-08-20T00:49:27;12.15;;;7.63;;
37299;SDS011;23184;51.902;12.836;2023-08-20T00:51:53;10.60;;;7.30;;
37299;SDS011;23184;51.902;12.836;2023-08-20T00:54:20;9.93;;;7.53;;
37299;SDS011;23184;51.902;12.836;2023-08-20T00:56:45;11.45;;;7.90;;
37299;SDS011;23184;51.902;12.836;2023-08-20T00:59:11;11.13;;;7.25;;
37299;SDS011;23184;51.902;12.836;2023-08-20T01:01:37;11.77;;;7.40;;
37299;SDS011;23184;51.902;12.836;2023-08-20T01:04:02;9.98;;;7.07;;
37299;SDS011;23184;51.902;12.836;2023-08-20T01:06:33;8.48;;;6.43;;
37299;SDS011;23184;51.902;12.836;2023-08-20T01:09:21;11.30;;;7.78;;
37299;SDS011;23184;51.902;12.836;2023-08-20T01:12:07;8.70;;;7.47;;
37299;SDS011;23184;51.902;12.836;2023-08-20T01:14:35;9.32;;;7.28;;
37299;SDS011;23184;51.902;12.836;2023-08-20T01:17:00;12.70;;;8.10;;
37299;SDS011;23184;51.902;12.836;2023-08-20T01:19:26;12.82;;;7.82;;
37299;SDS011;23184;51.902;12.836;2023-08-20T01:24:46;8.70;;;7.28;;
37299;SDS011;23184;51.902;12.836;2023-08-20T01:30:27;10.77;;;7.78;;
37299;SDS011;23184;51.902;12.836;2023-08-20T01:32:53;13.45;;;8.13;;
37299;SDS011;23184;51.902;12.836;2023-08-20T01:35:19;12.60;;;8.02;;
37299;SDS011;23184;51.902;12.836;2023-08-20T01:37:45;9.40;;;7.55;;
37299;SDS011;23184;51.902;12.836;2023-08-20T01:40:10;12.80;;;7.38;;
37299;SDS011;23184;51.902;12.836;2023-08-20T01:42:37;10.27;;;7.68;;
37299;SDS011;23184;51.902;12.836;2023-08-20T01:45:03;10.38;;;8.13;;
37299;SDS011;23184;51.902;12.836;2023-08-20T01:47:30;10.60;;;7.85;;
37299;SDS011;23184;51.902;12.836;2023-08-20T01:49:56;10.82;;;8.40;;
37299;SDS011;23184;51.902;12.836;2023-08-20T01:52:21;10.98;;;8.32;;
37299;SDS011;23184;51.902;12.836;2023-08-20T01:54:48;12.40;;;8.05;;
37299;SDS011;23184;51.902;12.836;2023-08-20T01:57:14;11.77;;;8.50;;
37299;SDS011;23184;51.902;12.836;2023-08-20T01:59:40;11.48;;;8.63;;
37299;SDS011;23184;51.902;12.836;2023-08-20T02:02:05;13.27;;;8.55;;
37299;SDS011;23184;51.902;12.836;2023-08-20T02:04:31;10.63;;;8.10;;
37299;SDS011;23184;51.902;12.836;2023-08-20T02:06:57;11.48;;;8.55;;
37299;SDS011;23184;51.902;12.836;2023-08-20T02:09:22;12.38;;;9.13;;
37299;SDS011;23184;51.902;12.836;2023-08-20T02:11:49;14.27;;;9.07;;
37299;SDS011;23184;51.902;12.836;2023-08-20T02:14:15;19.95;;;9.85;;
37299;SDS011;23184;51.902;12.836;2023-08-20T02:16:40;12.70;;;8.80;;
37299;SDS011;23184;51.902;12.836;2023-08-20T02:19:06;11.07;;;8.73;;
37299;SDS011;23184;51.902;12.836;2023-08-20T02:21:32;12.88;;;9.43;;
37299;SDS011;23184;51.902;12.836;2023-08-20T02:23:58;13.98;;;9.27;;
37299;SDS011;23184;51.902;12.836;2023-08-20T02:26:24;13.98;;;9.48;;
37299;SDS011;23184;51.902;12.836;2023-08-20T02:28:49;12.90;;;9.52;;
37299;SDS011;23184;51.902;12.836;2023-08-20T02:31:15;11.82;;;9.13;;
37299;SDS011;23184;51.902;12.836;2023-08-20T02:33:40;16.92;;;9.68;;
37299;SDS011;23184;51.902;12.836;2023-08-20T02:36:06;15.32;;;9.98;;
37299;SDS011;23184;51.902;12.836;2023-08-20T02:38:31;14.88;;;10.18;;
37299;SDS011;23184;51.902;12.836;2023-08-20T02:40:57;14.82;;;11.02;;
37299;SDS011;23184;51.902;12.836;2023-08-20T02:43:23;11.57;;;9.52;;
37299;SDS011;23184;51.902;12.836;2023-08-20T02:45:48;15.07;;;9.98;;
37299;SDS011;23184;51.902;12.836;2023-08-20T02:48:14;15.18;;;10.00;;
37299;SDS011;23184;51.902;12.836;2023-08-20T02:50:40;14.05;;;10.45;;
37299;SDS011;23184;51.902;12.836;2023-08-20T02:53:05;13.80;;;10.70;;
37299;SDS011;23184;51.902;12.836;2023-08-20T02:55:31;15.98;;;10.60;;
37299;SDS011;23184;51.902;12.836;2023-08-20T02:57:58;15.38;;;10.40;;
37299;SDS011;23184;51.902;12.836;2023-08-20T03:00:23;13.48;;;10.10;;
37299;SDS011;23184;51.902;12.836;2023-08-20T03:02:49;18.27;;;9.98;;
37299;SDS011;23184;51.902;12.836;2023-08-20T03:05:15;14.77;;;10.88;;
37299;SDS011;23184;51.902;12.836;2023-08-20T03:07:40;16.65;;;10.85;;
37299;SDS011;23184;51.902;12.836;2023-08-20T03:10:06;15.50;;;10.65;;
37299;SDS011;23184;51.902;12.836;2023-08-20T03:12:32;15.65;;;11.15;;
37299;SDS011;23184;51.902;12.836;2023-08-20T03:14:58;14.30;;;10.27;;
37299;SDS011;23184;51.902;12.836;2023-08-20T03:17:24;13.35;;;11.48;;
37299;SDS011;23184;51.902;12.836;2023-08-20T03:19:53;13.25;;;10.88;;
37299;SDS011;23184;51.902;12.836;2023-08-20T03:22:23;19.35;;;11.52;;
37299;SDS011;23184;51.902;12.836;2023-08-20T03:24:50;15.82;;;11.48;;
37299;SDS011;23184;51.902;12.836;2023-08-20T03:27:16;19.27;;;11.38;;
37299;SDS011;23184;51.902;12.836;2023-08-20T03:29:42;17.30;;;11.70;;
37299;SDS011;23184;51.902;12.836;2023-08-20T03:32:08;15.38;;;12.55;;
37299;SDS011;23184;51.902;12.836;2023-08-20T03:34:34;18.75;;;12.60;;
37299;SDS011;23184;51.902;12.836;2023-08-20T03:36:59;15.07;;;12.45;;
37299;SDS011;23184;51.902;12.836;2023-08-20T03:39:25;17.67;;;12.23;;
37299;SDS011;23184;51.902;12.836;2023-08-20T03:41:51;19.50;;;13.85;;
37299;SDS011;23184;51.902;12.836;2023-08-20T03:44:17;17.88;;;12.93;;
37299;SDS011;23184;51.902;12.836;2023-08-20T03:46:43;17.58;;;12.82;;
37299;SDS011;23184;51.902;12.836;2023-08-20T03:49:08;19.70;;;14.00;;
37299;SDS011;23184;51.902;12.836;2023-08-20T03:51:34;16.98;;;12.43;;
37299;SDS011;23184;51.902;12.836;2023-08-20T03:53:59;17.65;;;13.13;;
37299;SDS011;23184;51.902;12.836;2023-08-20T03:56:25;15.48;;;12.48;;
37299;SDS011;23184;51.902;12.836;2023-08-20T03:58:50;20.45;;;13.63;;
37299;SDS011;23184;51.902;12.836;2023-08-20T04:01:17;16.00;;;13.50;;
37299;SDS011;23184;51.902;12.836;2023-08-20T04:03:43;19.85;;;13.02;;
37299;SDS011;23184;51.902;12.836;2023-08-20T04:06:10;20.70;;;12.88;;
37299;SDS011;23184;51.902;12.836;2023-08-20T04:08:36;17.48;;;13.80;;
37299;SDS011;23184;51.902;12.836;2023-08-20T04:11:01;17.98;;;12.75;;
37299;SDS011;23184;51.902;12.836;2023-08-20T04:13:28;17.42;;;12.50;;
37299;SDS011;23184;51.902;12.836;2023-08-20T04:15:54;17.70;;;13.43;;
37299;SDS011;23184;51.902;12.836;2023-08-20T04:18:19;18.52;;;12.77;;
37299;SDS011;23184;51.902;12.836;2023-08-20T04:20:45;20.50;;;12.88;;
37299;SDS011;23184;51.902;12.836;2023-08-20T04:23:10;19.05;;;13.35;;
37299;SDS011;23184;51.902;12.836;2023-08-20T04:25:36;18.55;;;13.05;;
37299;SDS011;23184;51.902;12.836;2023-08-20T04:28:02;17.00;;;13.45;;
37299;SDS011;23184;51.902;12.836;2023-08-20T04:30:27;18.10;;;13.50;;
37299;SDS011;23184;51.902;12.836;2023-08-20T04:32:53;17.40;;;13.70;;
37299;SDS011;23184;51.902;12.836;2023-08-20T04:35:18;17.65;;;13.85;;
37299;SDS011;23184;51.902;12.836;2023-08-20T04:37:44;19.38;;;13.88;;
37299;SDS011;23184;51.902;12.836;2023-08-20T04:40:09;17.13;;;13.15;;
37299;SDS011;23184;51.902;12.836;2023-08-20T04:42:35;19.48;;;13.13;;
37299;SDS011;23184;51.902;12.836;2023-08-20T04:45:01;18.83;;;14.05;;
37299;SDS011;23184;51.902;12.836;2023-08-20T04:47:26;21.65;;;14.45;;
37299;SDS011;23184;51.902;12.836;2023-08-20T04:49:52;17.70;;;13.10;;
37299;SDS011;23184;51.902;12.836;2023-08-20T04:52:17;18.98;;;14.10;;
37299;SDS011;23184;51.902;12.836;2023-08-20T04:54:45;21.63;;;14.90;;
37299;SDS011;23184;51.902;12.836;2023-08-20T04:57:11;19.48;;;13.70;;
37299;SDS011;23184;51.902;12.836;2023-08-20T04:59:36;20.92;;;14.27;;
37299;SDS011;23184;51.902;12.836;2023-08-20T05:02:02;21.45;;;15.50;;
37299;SDS011;23184;51.902;12.836;2023-08-20T05:04:27;18.92;;;15.63;;
37299;SDS011;23184;51.902;12.836;2023-08-20T05:06:53;21.65;;;14.90;;
37299;SDS011;23184;51.902;12.836;2023-08-20T05:09:18;18.77;;;14.52;;
37299;SDS011;23184;51.902;12.836;2023-08-20T05:11:44;17.40;;;14.60;;
37299;SDS011;23184;51.902;12.836;2023-08-20T05:14:09;21.85;;;15.30;;
37299;SDS011;23184;51.902;12.836;2023-08-20T05:16:35;23.75;;;15.10;;
37299;SDS011;23184;51.902;12.836;2023-08-20T05:19:00;19.75;;;14.45;;
37299;SDS011;23184;51.902;12.836;2023-08-20T05:21:26;20.52;;;15.10;;
37299;SDS011;23184;51.902;12.836;2023-08-20T05:23:51;23.15;;;16.77;;
37299;SDS011;23184;51.902;12.836;2023-08-20T05:26:17;20.80;;;15.38;;
37299;SDS011;23184;51.902;12.836;2023-08-20T05:28:42;21.25;;;16.02;;
37299;SDS011;23184;51.902;12.836;2023-08-20T05:31:08;20.02;;;15.07;;
37299;SDS011;23184;51.902;12.836;2023-08-20T05:33:35;22.25;;;16.15;;
37299;SDS011;23184;51.902;12.836;2023-08-20T05:36:01;19.50;;;14.88;;
37299;SDS011;23184;51.902;12.836;2023-08-20T05:38:26;24.13;;;15.98;;
37299;SDS011;23184;51.902;12.836;2023-08-20T05:40:52;20.52;;;15.05;;
37299;SDS011;23184;51.902;12.836;2023-08-20T05:43:17;18.77;;;14.75;;
37299;SDS011;23184;51.902;12.836;2023-08-20T05:45:43;20.50;;;14.27;;
37299;SDS011;23184;51.902;12.836;2023-08-20T05:48:08;19.25;;;13.75;;
37299;SDS011;23184;51.902;12.836;2023-08-20T05:50:34;19.85;;;13.57;;
37299;SDS011;23184;51.902;12.836;2023-08-20T05:53:00;17.45;;;13.52;;
37299;SDS011;23184;51.902;12.836;2023-08-20T05:55:25;16.63;;;12.95;;
37299;SDS011;23184;51.902;12.836;2023-08-20T05:57:51;20.13;;;13.88;;
37299;SDS011;23184;51.902;12.836;2023-08-20T06:00:16;16.63;;;12.90;;
37299;SDS011;23184;51.902;12.836;2023-08-20T06:02:43;17.40;;;13.88;;
37299;SDS011;23184;51.902;12.836;2023-08-20T06:05:09;17.35;;;13.00;;
37299;SDS011;23184;51.902;12.836;2023-08-20T06:07:35;17.92;;;12.82;;
37299;SDS011;23184;51.902;12.836;2023-08-20T06:10:00;17.38;;;12.10;;
37299;SDS011;23184;51.902;12.836;2023-08-20T06:12:26;17.98;;;11.52;;
37299;SDS011;23184;51.902;12.836;2023-08-20T06:14:51;13.43;;;10.25;;
37299;SDS011;23184;51.902;12.836;2023-08-20T06:17:17;11.80;;;9.40;;
37299;SDS011;23184;51.902;12.836;2023-08-20T06:19:43;14.70;;;9.48;;
37299;SDS011;23184;51.902;12.836;2023-08-20T06:22:09;16.00;;;8.48;;
37299;SDS011;23184;51.902;12.836;2023-08-20T06:24:35;12.27;;;8.25;;
37299;SDS011;23184;51.902;12.836;2023-08-20T06:27:00;12.07;;;8.07;;
37299;SDS011;23184;51.902;12.836;2023-08-20T06:29:26;9.50;;;7.47;;
37299;SDS011;23184;51.902;12.836;2023-08-20T06:31:51;12.30;;;7.78;;
37299;SDS011;23184;51.902;12.836;2023-08-20T06:34:17;10.13;;;7.60;;
37299;SDS011;23184;51.902;12.836;2023-08-20T06:36:43;11.75;;;7.00;;
37299;SDS011;23184;51.902;12.836;2023-08-20T06:39:08;10.25;;;7.05;;
37299;SDS011;23184;51.902;12.836;2023-08-20T06:41:34;8.52;;;6.25;;
37299;SDS011;23184;51.902;12.836;2023-08-20T06:44:00;8.20;;;6.20;;
37299;SDS011;23184;51.902;12.836;2023-08-20T06:46:26;7.95;;;6.38;;
37299;SDS011;23184;51.902;12.836;2023-08-20T06:48:51;6.75;;;5.70;;
37299;SDS011;23184;51.902;12.836;2023-08-20T06:51:20;9.93;;;5.85;;
37299;SDS011;23184;51.902;12.836;2023-08-20T06:53:46;6.82;;;5.35;;
37299;SDS011;23184;51.902;12.836;2023-08-20T06:56:12;7.15;;;5.40;;
37299;SDS011;23184;51.902;12.836;2023-08-20T06:58:38;8.75;;;5.20;;
37299;SDS011;23184;51.902;12.836;2023-08-20T07:01:05;7.03;;;4.63;;
37299;SDS011;23184;51.902;12.836;2023-08-20T07:03:43;6.70;;;4.65;;
37299;SDS011;23184;51.902;12.836;2023-08-20T07:06:09;7.50;;;5.03;;
37299;SDS011;23184;51.902;12.836;2023-08-20T07:08:36;7.15;;;4.95;;
37299;SDS011;23184;51.902;12.836;2023-08-20T07:11:03;9.57;;;5.03;;
37299;SDS011;23184;51.902;12.836;2023-08-20T07:13:29;8.85;;;3.85;;
37299;SDS011;23184;51.902;12.836;2023-08-20T07:15:54;4.53;;;3.60;;
37299;SDS011;23184;51.902;12.836;2023-08-20T07:18:20;7.18;;;3.88;;
37299;SDS011;23184;51.902;12.836;2023-08-20T07:20:45;6.53;;;3.95;;
37299;SDS011;23184;51.902;12.836;2023-08-20T07:23:11;4.72;;;3.53;;
37299;SDS011;23184;51.902;12.836;2023-08-20T07:25:37;6.32;;;3.17;;
37299;SDS011;23184;51.902;12.836;2023-08-20T07:28:04;6.90;;;3.40;;
37299;SDS011;23184;51.902;12.836;2023-08-20T07:30:30;2.90;;;2.35;;
37299;SDS011;23184;51.902;12.836;2023-08-20T07:32:56;6.68;;;2.78;;
37299;SDS011;23184;51.902;12.836;2023-08-20T07:35:22;5.55;;;3.00;;
37299;SDS011;23184;51.902;12.836;2023-08-20T07:37:48;4.13;;;3.10;;
37299;SDS011;23184;51.902;12.836;2023-08-20T07:40:13;5.07;;;3.20;;
37299;SDS011;23184;51.902;12.836;2023-08-20T07:42:42;5.28;;;2.90;;
37299;SDS011;23184;51.902;12.836;2023-08-20T07:45:08;6.10;;;2.90;;
37299;SDS011;23184;51.902;12.836;2023-08-20T07:47:35;4.90;;;3.20;;
37299;SDS011;23184;51.902;12.836;2023-08-20T07:50:04;6.53;;;3.10;;
37299;SDS011;23184;51.902;12.836;2023-08-20T07:52:30;6.50;;;2.88;;
37299;SDS011;23184;51.902;12.836;2023-08-20T07:54:59;3.83;;;3.00;;
37299;SDS011;23184;51.902;12.836;2023-08-20T07:57:25;4.15;;;3.05;;
37299;SDS011;23184;51.902;12.836;2023-08-20T07:59:51;4.47;;;2.78;;
37299;SDS011;23184;51.902;12.836;2023-08-20T08:02:17;5.35;;;2.50;;
37299;SDS011;23184;51.902;12.836;2023-08-20T08:04:43;6.07;;;2.53;;
37299;SDS011;23184;51.902;12.836;2023-08-20T08:07:09;3.60;;;2.40;;
37299;SDS011;23184;51.902;12.836;2023-08-20T08:09:36;3.85;;;2.80;;
37299;SDS011;23184;51.902;12.836;2023-08-20T08:12:02;3.92;;;2.55;;
37299;SDS011;23184;51.902;12.836;2023-08-20T08:14:28;5.07;;;2.95;;
37299;SDS011;23184;51.902;12.836;2023-08-20T08:16:53;3.83;;;2.83;;
37299;SDS011;23184;51.902;12.836;2023-08-20T08:19:19;5.57;;;3.33;;
37299;SDS011;23184;51.902;12.836;2023-08-20T08:21:45;7.90;;;3.03;;
37299;SDS011;23184;51.902;12.836;2023-08-20T08:24:12;4.63;;;2.65;;
37299;SDS011;23184;51.902;12.836;2023-08-20T08:26:38;4.05;;;2.60;;
37299;SDS011;23184;51.902;12.836;2023-08-20T08:29:05;4.88;;;2.50;;
37299;SDS011;23184;51.902;12.836;2023-08-20T08:31:31;5.32;;;2.63;;
37299;SDS011;23184;51.902;12.836;2023-08-20T08:33:57;5.78;;;3.40;;
37299;SDS011;23184;51.902;12.836;2023-08-20T08:36:22;6.40;;;3.30;;
37299;SDS011;23184;51.902;12.836;2023-08-20T08:38:50;4.65;;;3.10;;
37299;SDS011;23184;51.902;12.836;2023-08-20T08:41:16;5.03;;;3.25;;
37299;SDS011;23184;51.902;12.836;2023-08-20T08:43:41;6.53;;;3.40;;
37299;SDS011;23184;51.902;12.836;2023-08-20T08:46:09;5.72;;;3.40;;
37299;SDS011;23184;51.902;12.836;2023-08-20T08:51:11;5.60;;;3.80;;
37299;SDS011;23184;51.902;12.836;2023-08-20T08:53:37;4.53;;;3.13;;
37299;SDS011;23184;51.902;12.836;2023-08-20T08:56:03;5.80;;;3.90;;
37299;SDS011;23184;51.902;12.836;2023-08-20T08:58:30;4.57;;;3.47;;
37299;SDS011;23184;51.902;12.836;2023-08-20T09:00:57;6.35;;;3.63;;
37299;SDS011;23184;51.902;12.836;2023-08-20T09:03:23;4.97;;;3.17;;
37299;SDS011;23184;51.902;12.836;2023-08-20T09:05:49;4.20;;;2.60;;
37299;SDS011;23184;51.902;12.836;2023-08-20T09:08:22;4.65;;;2.92;;
37299;SDS011;23184;51.902;12.836;2023-08-20T09:10:53;4.57;;;3.00;;
37299;SDS011;23184;51.902;12.836;2023-08-20T09:13:24;3.40;;;2.78;;
37299;SDS011;23184;51.902;12.836;2023-08-20T09:15:54;3.65;;;3.00;;
37299;SDS011;23184;51.902;12.836;2023-08-20T09:18:20;3.20;;;2.90;;
37299;SDS011;23184;51.902;12.836;2023-08-20T09:20:47;3.30;;;3.00;;
37299;SDS011;23184;51.902;12.836;2023-08-20T09:23:16;5.05;;;2.90;;
37299;SDS011;23184;51.902;12.836;2023-08-20T09:25:43;4.65;;;3.00;;
37299;SDS011;23184;51.902;12.836;2023-08-20T09:28:10;3.83;;;2.85;;
37299;SDS011;23184;51.902;12.836;2023-08-20T09:30:36;4.30;;;3.08;;
37299;SDS011;23184;51.902;12.836;2023-08-20T09:33:07;2.85;;;2.45;;
37299;SDS011;23184;51.902;12.836;2023-08-20T09:35:34;5.78;;;2.83;;
37299;SDS011;23184;51.902;12.836;2023-08-20T09:38:00;3.92;;;2.83;;
37299;SDS011;23184;51.902;12.836;2023-08-20T09:40:28;3.15;;;2.40;;
37299;SDS011;23184;51.902;12.836;2023-08-20T09:42:54;3.90;;;3.03;;
37299;SDS011;23184;51.902;12.836;2023-08-20T09:45:20;4.18;;;3.10;;
37299;SDS011;23184;51.902;12.836;2023-08-20T09:47:48;4.47;;;3.08;;
37299;SDS011;23184;51.902;12.836;2023-08-20T09:50:15;4.03;;;3.03;;
37299;SDS011;23184;51.902;12.836;2023-08-20T09:52:53;4.45;;;2.55;;
37299;SDS011;23184;51.902;12.836;2023-08-20T09:55:22;5.03;;;2.97;;
37299;SDS011;23184;51.902;12.836;2023-08-20T09:57:57;8.75;;;2.80;;
37299;SDS011;23184;51.902;12.836;2023-08-20T10:00:25;3.50;;;2.80;;
37299;SDS011;23184;51.902;12.836;2023-08-20T10:02:50;4.75;;;3.05;;
37299;SDS011;23184;51.902;12.836;2023-08-20T10:05:17;3.40;;;2.78;;
37299;SDS011;23184;51.902;12.836;2023-08-20T10:07:45;4.35;;;3.08;;
37299;SDS011;23184;51.902;12.836;2023-08-20T10:10:11;5.00;;;2.72;;
37299;SDS011;23184;51.902;12.836;2023-08-20T10:12:38;4.18;;;3.00;;
37299;SDS011;23184;51.902;12.836;2023-08-20T10:15:04;3.95;;;2.90;;
37299;SDS011;23184;51.902;12.836;2023-08-20T10:17:32;5.00;;;3.00;;
37299;SDS011;23184;51.902;12.836;2023-08-20T10:19:58;6.38;;;3.20;;
37299;SDS011;23184;51.902;12.836;2023-08-20T10:22:35;3.33;;;2.75;;
37299;SDS011;23184;51.902;12.836;2023-08-20T10:25:02;3.40;;;2.90;;
37299;SDS011;23184;51.902;12.836;2023-08-20T10:27:35;3.17;;;2.88;;
37299;SDS011;23184;51.902;12.836;2023-08-20T10:30:09;3.60;;;3.00;;
37299;SDS011;23184;51.902;12.836;2023-08-20T10:32:51;3.22;;;2.83;;
37299;SDS011;23184;51.902;12.836;2023-08-20T10:35:27;5.88;;;3.55;;
37299;SDS011;23184;51.902;12.836;2023-08-20T10:38:00;3.55;;;2.95;;
37299;SDS011;23184;51.902;12.836;2023-08-20T10:43:31;3.20;;;2.90;;
37299;SDS011;23184;51.902;12.836;2023-08-20T10:46:04;3.42;;;3.13;;
37299;SDS011;23184;51.902;12.836;2023-08-20T10:48:40;5.60;;;3.20;;
37299;SDS011;23184;51.902;12.836;2023-08-20T10:51:09;3.72;;;3.30;;
37299;SDS011;23184;51.902;12.836;2023-08-20T10:53:35;2.90;;;2.67;;
37299;SDS011;23184;51.902;12.836;2023-08-20T10:56:08;3.38;;;3.03;;
37299;SDS011;23184;51.902;12.836;2023-08-20T10:58:34;5.47;;;3.55;;
37299;SDS011;23184;51.902;12.836;2023-08-20T11:01:21;5.43;;;3.50;;
37299;SDS011;23184;51.902;12.836;2023-08-20T11:03:48;3.50;;;3.15;;
37299;SDS011;23184;51.902;12.836;2023-08-20T11:06:14;7.13;;;3.58;;
37299;SDS011;23184;51.902;12.836;2023-08-20T11:08:41;4.13;;;3.08;;
37299;SDS011;23184;51.902;12.836;2023-08-20T11:11:07;3.20;;;2.90;;
37299;SDS011;23184;51.902;12.836;2023-08-20T11:13:33;3.65;;;3.30;;
37299;SDS011;23184;51.902;12.836;2023-08-20T11:16:01;3.80;;;3.38;;
37299;SDS011;23184;51.902;12.836;2023-08-20T11:18:27;4.60;;;3.50;;
37299;SDS011;23184;51.902;12.836;2023-08-20T11:20:53;5.57;;;3.42;;
37299;SDS011;23184;51.902;12.836;2023-08-20T11:23:19;4.00;;;3.13;;
37299;SDS011;23184;51.902;12.836;2023-08-20T11:25:46;3.75;;;3.30;;
37299;SDS011;23184;51.902;12.836;2023-08-20T11:28:12;3.28;;;2.90;;
37299;SDS011;23184;51.902;12.836;2023-08-20T11:30:37;4.07;;;3.65;;
37299;SDS011;23184;51.902;12.836;2023-08-20T11:33:03;5.65;;;4.40;;
37299;SDS011;23184;51.902;12.836;2023-08-20T11:35:30;4.32;;;3.70;;
37299;SDS011;23184;51.902;12.836;2023-08-20T11:37:56;6.15;;;3.50;;
37299;SDS011;23184;51.902;12.836;2023-08-20T11:40:23;5.82;;;3.83;;
37299;SDS011;23184;51.902;12.836;2023-08-20T11:42:48;4.90;;;4.40;;
37299;SDS011;23184;51.902;12.836;2023-08-20T11:45:14;7.10;;;4.80;;
37299;SDS011;23184;51.902;12.836;2023-08-20T11:47:40;5.65;;;4.38;;
37299;SDS011;23184;51.902;12.836;2023-08-20T11:50:07;6.95;;;4.97;;
37299;SDS011;23184;51.902;12.836;2023-08-20T11:52:34;6.95;;;5.15;;
37299;SDS011;23184;51.902;12.836;2023-08-20T11:55:01;8.40;;;5.38;;
37299;SDS011;23184;51.902;12.836;2023-08-20T11:57:30;7.00;;;5.40;;
37299;SDS011;23184;51.902;12.836;2023-08-20T11:59:59;7.97;;;5.60;;
37299;SDS011;23184;51.902;12.836;2023-08-20T12:02:40;8.55;;;5.90;;
37299;SDS011;23184;51.902;12.836;2023-08-20T12:05:07;7.93;;;6.25;;
37299;SDS011;23184;51.902;12.836;2023-08-20T12:07:32;7.65;;;5.70;;
37299;SDS011;23184;51.902;12.836;2023-08-20T12:09:58;8.02;;;5.50;;
37299;SDS011;23184;51.902;12.836;2023-08-20T12:12:23;6.68;;;5.13;;
37299;SDS011;23184;51.902;12.836;2023-08-20T12:14:49;6.82;;;5.22;;
37299;SDS011;23184;51.902;12.836;2023-08-20T12:17:18;8.07;;;5.03;;
37299;SDS011;23184;51.902;12.836;2023-08-20T12:19:44;5.43;;;4.72;;
37299;SDS011;23184;51.902;12.836;2023-08-20T12:22:10;5.80;;;4.55;;
37299;SDS011;23184;51.902;12.836;2023-08-20T12:24:36;6.05;;;4.60;;
37299;SDS011;23184;51.902;12.836;2023-08-20T12:27:02;6.75;;;5.43;;
37299;SDS011;23184;51.902;12.836;2023-08-20T12:29:28;6.80;;;4.88;;
37299;SDS011;23184;51.902;12.836;2023-08-20T12:31:54;7.65;;;5.05;;
37299;SDS011;23184;51.902;12.836;2023-08-20T12:34:20;5.70;;;4.35;;
37299;SDS011;23184;51.902;12.836;2023-08-20T12:36:46;5.13;;;4.40;;
37299;SDS011;23184;51.902;12.836;2023-08-20T12:39:13;5.28;;;3.75;;
37299;SDS011;23184;51.902;12.836;2023-08-20T12:41:39;4.00;;;3.33;;
37299;SDS011;23184;51.902;12.836;2023-08-20T12:44:04;5.45;;;4.00;;
37299;SDS011;23184;51.902;12.836;2023-08-20T12:46:30;5.05;;;4.15;;
37299;SDS011;23184;51.902;12.836;2023-08-20T12:48:56;4.97;;;4.03;;
37299;SDS011;23184;51.902;12.836;2023-08-20T12:51:22;3.92;;;3.42;;
37299;SDS011;23184;51.902;12.836;2023-08-20T12:53:47;6.25;;;3.65;;
37299;SDS011;23184;51.902;12.836;2023-08-20T12:56:13;4.55;;;3.53;;
37299;SDS011;23184;51.902;12.836;2023-08-20T12:58:40;4.65;;;3.70;;
37299;SDS011;23184;51.902;12.836;2023-08-20T13:01:06;7.57;;;4.20;;
37299;SDS011;23184;51.902;12.836;2023-08-20T13:03:32;7.40;;;4.40;;
37299;SDS011;23184;51.902;12.836;2023-08-20T13:05:58;7.15;;;4.60;;
37299;SDS011;23184;51.902;12.836;2023-08-20T13:08:23;4.38;;;3.67;;
37299;SDS011;23184;51.902;12.836;2023-08-20T13:10:50;4.72;;;3.92;;
37299;SDS011;23184;51.902;12.836;2023-08-20T13:13:21;4.40;;;3.57;;
37299;SDS011;23184;51.902;12.836;2023-08-20T13:15:49;5.18;;;3.70;;
37299;SDS011;23184;51.902;12.836;2023-08-20T13:18:16;4.65;;;3.60;;
37299;SDS011;23184;51.902;12.836;2023-08-20T13:20:42;6.65;;;3.65;;
37299;SDS011;23184;51.902;12.836;2023-08-20T13:23:08;3.88;;;2.97;;
37299;SDS011;23184;51.902;12.836;2023-08-20T13:25:34;6.63;;;4.00;;
37299;SDS011;23184;51.902;12.836;2023-08-20T13:27:59;8.95;;;3.55;;
37299;SDS011;23184;51.902;12.836;2023-08-20T13:30:25;3.45;;;3.15;;
37299;SDS011;23184;51.902;12.836;2023-08-20T13:32:50;3.70;;;3.30;;
37299;SDS011;23184;51.902;12.836;2023-08-20T13:35:16;3.58;;;3.20;;
37299;SDS011;23184;51.902;12.836;2023-08-20T13:37:41;4.63;;;3.28;;
37299;SDS011;23184;51.902;12.836;2023-08-20T13:40:07;3.75;;;2.95;;
37299;SDS011;23184;51.902;12.836;2023-08-20T13:42:34;4.25;;;3.20;;
37299;SDS011;23184;51.902;12.836;2023-08-20T13:45:00;5.30;;;3.78;;
37299;SDS011;23184;51.902;12.836;2023-08-20T13:47:26;3.92;;;3.50;;
37299;SDS011;23184;51.902;12.836;2023-08-20T13:49:51;4.25;;;3.60;;
37299;SDS011;23184;51.902;12.836;2023-08-20T13:52:17;3.88;;;3.10;;
37299;SDS011;23184;51.902;12.836;2023-08-20T13:54:42;5.93;;;3.35;;
37299;SDS011;23184;51.902;12.836;2023-08-20T13:57:08;5.57;;;3.22;;
37299;SDS011;23184;51.902;12.836;2023-08-20T13:59:34;3.85;;;3.10;;
37299;SDS011;23184;51.902;12.836;2023-08-20T14:01:59;6.28;;;3.35;;
37299;SDS011;23184;51.902;12.836;2023-08-20T14:04:25;3.63;;;2.78;;
37299;SDS011;23184;51.902;12.836;2023-08-20T14:06:51;4.82;;;3.00;;
37299;SDS011;23184;51.902;12.836;2023-08-20T14:09:16;3.70;;;3.30;;
37299;SDS011;23184;51.902;12.836;2023-08-20T14:11:43;5.38;;;2.85;;
37299;SDS011;23184;51.902;12.836;2023-08-20T14:14:09;5.28;;;3.13;;
37299;SDS011;23184;51.902;12.836;2023-08-20T14:16:35;5.90;;;2.85;;
37299;SDS011;23184;51.902;12.836;2023-08-20T14:19:00;5.72;;;3.20;;
37299;SDS011;23184;51.902;12.836;2023-08-20T14:21:26;5.05;;;2.83;;
37299;SDS011;23184;51.902;12.836;2023-08-20T14:23:51;3.38;;;2.70;;
37299;SDS011;23184;51.902;12.836;2023-08-20T14:26:17;3.60;;;2.75;;
37299;SDS011;23184;51.902;12.836;2023-08-20T14:28:43;3.25;;;2.90;;
37299;SDS011;23184;51.902;12.836;2023-08-20T14:31:09;2.92;;;2.60;;
37299;SDS011;23184;51.902;12.836;2023-08-20T14:33:34;5.13;;;2.60;;